Terminal Aerodrome Forecast
Issued by NWS Columbia, SC

Home | Current Version | Previous Version | Text Only | Print | Product List | Glossary On
Versions: 1 2 3 4 5 6 7 8 9 10 11 12 13 14 15 16 17 18 19 20 21 22 23 24 25 26 27 28 29 30 31 32 33 34 35 36 37
000
FTUS42 KCAE 260200 AAB
TAFCAE
TAF AMD
KCAE 260257Z 2603/2624 VRB05KT 5SM -RA BR SCT008 OVC025
      TEMPO 2603/2605 3SM -RA BR BKN008
     FM260500 35008KT 3SM -RA BR OVC007
     FM261400 31012G15KT 5SM -RA BR OVC015
     FM261700 30012G19KT P6SM OVC040=

USA.gov is the U.S. government's official web portal to all federal, state and local government web resources and services.